createdAt,value
2019-05-20T00:04:45.281Z,11.90
2019-05-20T00:09:53.512Z,11.90
2019-05-20T00:14:59.049Z,11.90
2019-05-20T00:20:00.394Z,11.90
2019-05-20T00:25:05.899Z,11.90
2019-05-20T00:30:09.606Z,11.90
2019-05-20T00:35:11.340Z,11.90
2019-05-20T00:40:13.601Z,11.90
2019-05-20T00:45:20.677Z,11.90
2019-05-20T00:50:22.004Z,11.80
2019-05-20T00:55:29.708Z,11.90
2019-05-20T01:00:47.355Z,11.90
2019-05-20T01:05:54.584Z,11.90
2019-05-20T01:10:59.094Z,11.90
2019-05-20T01:16:03.744Z,11.90
2019-05-20T01:21:05.740Z,11.90
2019-05-20T01:26:10.258Z,11.90
2019-05-20T01:31:22.847Z,11.90
2019-05-20T01:36:33.210Z,11.80
2019-05-20T01:41:37.726Z,11.80
2019-05-20T01:46:41.045Z,11.70
2019-05-20T01:51:45.615Z,11.70
2019-05-20T01:56:51.969Z,11.60
2019-05-20T02:01:57.764Z,11.60
2019-05-20T02:07:00.210Z,11.60
2019-05-20T02:12:04.680Z,11.60
2019-05-20T02:17:21.189Z,11.60
2019-05-20T02:22:25.747Z,11.60
2019-05-20T02:27:34.395Z,11.60
2019-05-20T02:32:46.812Z,11.50
2019-05-20T02:37:51.355Z,11.50
2019-05-20T02:43:46.301Z,11.50
2019-05-20T02:48:47.801Z,11.50
2019-05-20T02:54:01.079Z,11.40
2019-05-20T02:59:05.718Z,11.40
2019-05-20T03:04:12.823Z,11.50
2019-05-20T03:09:20.837Z,11.50
2019-05-20T03:14:24.285Z,11.50
2019-05-20T03:19:25.741Z,11.50
2019-05-20T03:24:39.183Z,11.50
2019-05-20T03:29:40.700Z,11.40
2019-05-20T03:34:58.005Z,11.40
2019-05-20T03:39:59.369Z,11.40
2019-05-20T03:45:04.531Z,11.50
2019-05-20T03:50:09.520Z,11.40
2019-05-20T03:55:16.894Z,11.40
2019-05-20T04:00:42.149Z,11.40
2019-05-20T04:05:46.532Z,11.40
2019-05-20T04:10:54.192Z,11.40
2019-05-20T04:15:56.583Z,11.40
2019-05-20T04:21:01.147Z,11.40
2019-05-20T04:26:05.665Z,11.40
2019-05-20T04:31:19.442Z,11.50
2019-05-20T04:36:21.902Z,11.50
2019-05-20T04:41:26.360Z,11.40
2019-05-20T04:46:30.986Z,11.50
2019-05-20T04:51:46.853Z,11.50
2019-05-20T04:56:48.256Z,11.50
2019-05-20T05:01:55.803Z,11.50
2019-05-20T05:06:59.199Z,11.50
2019-05-20T05:12:00.678Z,11.60
2019-05-20T05:17:09.140Z,11.50
2019-05-20T05:22:16.630Z,11.60
2019-05-20T05:27:31.300Z,11.60
2019-05-20T05:32:41.997Z,11.70
2019-05-20T05:37:46.738Z,11.70
2019-05-20T05:42:48.172Z,11.70
2019-05-20T05:47:49.553Z,11.80
2019-05-20T05:52:56.240Z,11.90
2019-05-20T05:58:09.808Z,11.90
2019-05-20T06:03:24.540Z,11.90
2019-05-20T06:08:25.933Z,12.00
2019-05-20T06:13:28.368Z,12.00
2019-05-20T06:18:29.857Z,12.00
2019-05-20T06:23:31.303Z,12.00
2019-05-20T06:28:45.354Z,12.10
2019-05-20T06:33:47.044Z,12.10
2019-05-20T06:38:50.499Z,12.10
2019-05-20T06:43:52.004Z,12.10
2019-05-20T06:48:59.545Z,12.20
2019-05-20T06:54:04.236Z,12.20
2019-05-20T06:59:14.466Z,12.20
2019-05-20T07:04:24.191Z,12.30
2019-05-20T07:09:25.471Z,12.40
2019-05-20T07:14:30.023Z,12.50
2019-05-20T07:19:39.229Z,12.50
2019-05-20T07:24:40.702Z,12.60
2019-05-20T07:29:45.219Z,12.60
2019-05-20T07:34:47.624Z,12.60
2019-05-20T07:39:48.920Z,12.70
2019-05-20T07:44:51.612Z,12.80
2019-05-20T07:49:59.470Z,12.90
2019-05-20T07:55:02.470Z,13.10
2019-05-20T08:00:08.532Z,13.10
2019-05-20T08:05:16.507Z,13.10
2019-05-20T08:10:26.949Z,13.10
2019-05-20T08:15:28.433Z,13.20
2019-05-20T08:20:40.891Z,13.50
2019-05-20T08:25:48.195Z,13.80
2019-05-20T08:30:58.883Z,13.90
2019-05-20T08:36:02.450Z,14.00
2019-05-20T08:41:04.876Z,14.00
2019-05-20T08:46:07.396Z,14.00
2019-05-20T08:51:08.893Z,14.30
2019-05-20T08:56:13.337Z,14.50
2019-05-20T09:01:15.889Z,14.50
2019-05-20T09:06:23.064Z,14.60
2019-05-20T09:11:27.805Z,14.50
2019-05-20T09:16:32.194Z,14.60
2019-05-20T09:21:43.868Z,14.40
2019-05-20T09:26:52.138Z,14.10
2019-05-20T09:31:53.852Z,14.10
2019-05-20T09:36:59.399Z,14.20
2019-05-20T09:42:23.354Z,14.40
2019-05-20T09:47:30.554Z,14.40
2019-05-20T09:52:31.938Z,14.40
2019-05-20T09:57:39.065Z,14.40
2019-05-20T10:02:40.352Z,14.70
2019-05-20T10:07:41.938Z,14.80
2019-05-20T10:12:46.410Z,14.80
2019-05-20T10:17:50.038Z,15.00
2019-05-20T10:23:06.831Z,15.10
2019-05-20T10:28:08.448Z,14.90
2019-05-20T10:33:12.928Z,14.60
2019-05-20T10:38:17.507Z,14.50
2019-05-20T10:43:25.138Z,14.50
2019-05-20T10:48:26.540Z,14.60
2019-05-20T10:53:33.663Z,14.70
2019-05-20T10:58:38.179Z,14.70
2019-05-20T11:03:42.928Z,14.70
2019-05-20T11:08:45.321Z,14.80
2019-05-20T11:14:31.058Z,14.90
2019-05-20T11:19:32.561Z,15.00
2019-05-20T11:24:33.976Z,14.80
2019-05-20T11:29:38.534Z,14.70
2019-05-20T11:35:19.117Z,14.60
2019-05-20T11:40:23.800Z,14.60
2019-05-20T11:45:28.371Z,14.60
2019-05-20T11:50:29.742Z,14.60
2019-05-20T11:55:39.901Z,14.50
2019-05-20T12:00:44.470Z,14.40
2019-05-20T12:05:48.358Z,14.40
2019-05-20T12:10:50.859Z,14.40
2019-05-20T12:15:57.963Z,14.30
2019-05-20T12:21:00.459Z,14.30
2019-05-20T12:26:03.792Z,14.40
2019-05-20T12:31:07.131Z,14.50
2019-05-20T12:36:14.456Z,14.50
2019-05-20T12:41:16.794Z,14.60
2019-05-20T12:46:19.236Z,14.60
2019-05-20T12:51:24.714Z,14.50
2019-05-20T12:56:29.205Z,14.60
2019-05-20T13:01:30.878Z,14.60
2019-05-20T13:06:35.232Z,14.50
2019-05-20T13:11:36.680Z,14.50
2019-05-20T13:16:38.195Z,14.60
2019-05-20T13:21:53.482Z,14.50
2019-05-20T13:26:55.853Z,14.60
2019-05-20T13:32:03.859Z,14.70
2019-05-20T13:37:06.290Z,14.80
2019-05-20T13:42:11.254Z,14.80
2019-05-20T13:47:12.794Z,14.80
2019-05-20T13:52:20.126Z,14.80
2019-05-20T13:57:21.569Z,14.80
2019-05-20T14:02:26.134Z,14.90
2019-05-20T14:07:33.384Z,14.90
2019-05-20T14:12:44.135Z,14.90
2019-05-20T14:17:45.616Z,15.10
2019-05-20T14:22:51.540Z,15.20
2019-05-20T14:27:58.833Z,15.20
2019-05-20T14:33:01.436Z,15.20
2019-05-20T14:38:08.650Z,15.10
2019-05-20T14:43:44.465Z,15.00
2019-05-20T14:48:50.043Z,15.10
2019-05-20T14:53:51.583Z,15.10
2019-05-20T14:58:58.889Z,15.10
2019-05-20T15:04:00.258Z,15.00
2019-05-20T15:09:09.440Z,14.80
2019-05-20T15:14:10.897Z,14.80
2019-05-20T15:19:18.201Z,14.70
2019-05-20T15:24:19.647Z,14.70
2019-05-20T15:29:28.125Z,14.50
2019-05-20T15:34:37.673Z,14.40
2019-05-20T15:39:41.027Z,14.30
2019-05-20T15:44:42.459Z,14.30
2019-05-20T15:49:44.875Z,14.20
2019-05-20T15:54:54.010Z,14.20
2019-05-20T15:59:57.485Z,14.10
2019-05-20T16:05:03.062Z,14.00
2019-05-20T16:10:05.478Z,13.90
2019-05-20T16:15:07.978Z,13.90
2019-05-20T16:20:12.636Z,13.70
2019-05-20T16:25:14.381Z,13.60
2019-05-20T16:30:16.793Z,13.50
2019-05-20T16:35:20.828Z,13.50
2019-05-20T16:40:23.262Z,13.60
2019-05-20T16:45:25.633Z,13.60
2019-05-20T16:50:27.028Z,13.50
2019-05-20T16:55:30.508Z,13.50
2019-05-20T17:00:32.475Z,13.50
2019-05-20T17:05:40.118Z,13.50
2019-05-20T17:10:42.494Z,13.50
2019-05-20T17:15:47.042Z,13.60
2019-05-20T17:20:55.379Z,13.60
2019-05-20T17:25:59.863Z,13.40
2019-05-20T17:31:01.256Z,13.20
2019-05-20T17:36:04.588Z,13.00
2019-05-20T17:41:11.882Z,12.90
2019-05-20T17:46:14.505Z,12.80
2019-05-20T17:51:18.150Z,12.70
2019-05-20T17:56:22.661Z,12.60
2019-05-20T18:01:24.078Z,12.50
2019-05-20T18:06:25.497Z,12.40
2019-05-20T18:11:32.821Z,12.40
2019-05-20T18:16:41.200Z,12.40
2019-05-20T18:21:46.115Z,12.40
2019-05-20T18:27:01.629Z,12.30
2019-05-20T18:32:03.057Z,12.30
2019-05-20T18:37:05.809Z,12.30
2019-05-20T18:42:16.190Z,12.30
2019-05-20T18:47:17.651Z,12.30
2019-05-20T18:52:20.067Z,12.30
2019-05-20T18:57:21.343Z,12.20
2019-05-20T19:02:26.238Z,12.10
2019-05-20T19:07:33.612Z,12.10
2019-05-20T19:12:57.906Z,12.10
2019-05-20T19:18:01.319Z,12.00
2019-05-20T19:23:13.440Z,12.00
2019-05-20T19:28:15.944Z,12.00
2019-05-20T19:33:36.429Z,12.00
2019-05-20T19:38:44.173Z,12.00
2019-05-20T19:43:47.557Z,12.00
2019-05-20T19:48:52.067Z,12.00
2019-05-20T19:53:53.489Z,12.00
2019-05-20T19:58:54.780Z,12.00
2019-05-20T20:03:58.291Z,12.00
2019-05-20T20:09:02.251Z,12.00
2019-05-20T20:14:09.747Z,12.00
2019-05-20T20:19:13.330Z,12.00
2019-05-20T20:24:20.521Z,12.00
2019-05-20T20:29:23.914Z,12.00
2019-05-20T20:34:30.660Z,11.90
2019-05-20T20:39:34.496Z,11.90
2019-05-20T20:44:35.992Z,11.90
2019-05-20T20:49:37.532Z,11.90
2019-05-20T20:54:42.291Z,11.80
2019-05-20T20:59:43.583Z,11.80
2019-05-20T21:04:45.341Z,11.80
2019-05-20T21:09:52.752Z,11.70
2019-05-20T21:14:57.112Z,11.70
2019-05-20T21:19:59.578Z,11.70
2019-05-20T21:25:05.145Z,11.70
2019-05-20T21:30:17.736Z,11.60
2019-05-20T21:35:25.002Z,11.50
2019-05-20T21:40:26.300Z,11.50
2019-05-20T21:45:31.150Z,11.50
2019-05-20T21:50:40.495Z,11.50
2019-05-20T21:55:45.206Z,11.40
2019-05-20T22:00:54.159Z,11.30
2019-05-20T22:06:01.488Z,11.30
2019-05-20T22:11:06.170Z,11.30
2019-05-20T22:16:07.615Z,11.30
2019-05-20T22:21:14.051Z,11.20
2019-05-20T22:26:15.452Z,11.20
2019-05-20T22:31:17.877Z,11.20
2019-05-20T22:36:25.211Z,11.20
2019-05-20T22:41:26.638Z,11.20
2019-05-20T22:46:33.006Z,11.10
2019-05-20T22:51:34.329Z,11.10
2019-05-20T22:56:38.840Z,11.10
2019-05-20T23:01:51.251Z,11.10
2019-05-20T23:06:54.581Z,11.10
2019-05-20T23:12:02.305Z,11.00
2019-05-20T23:17:09.578Z,11.00
2019-05-20T23:22:10.872Z,11.00
2019-05-20T23:27:37.209Z,11.10
2019-05-20T23:32:38.763Z,11.00
2019-05-20T23:37:41.177Z,11.00
2019-05-20T23:42:57.707Z,10.90
2019-05-20T23:48:02.329Z,10.90
2019-05-20T23:53:06.994Z,10.90
2019-05-20T23:58:22.390Z,10.90
